createdAt,value
2019-04-25T00:01:46.353Z,68.22
2019-04-25T00:04:21.566Z,68.33
2019-04-25T00:06:53.984Z,68.60
2019-04-25T00:09:28.648Z,68.71
2019-04-25T00:12:02.270Z,68.96
2019-04-25T00:14:34.502Z,69.00
2019-04-25T00:17:07.502Z,69.07
2019-04-25T00:19:40.735Z,69.19
2019-04-25T00:22:51.515Z,69.09
2019-04-25T00:25:44.473Z,69.00
2019-04-25T00:28:15.198Z,68.78
2019-04-25T00:30:47.968Z,68.78
2019-04-25T00:33:21.577Z,68.79
2019-04-25T00:35:53.652Z,68.70
2019-04-25T00:38:25.656Z,68.42
2019-04-25T00:40:57.628Z,68.67
2019-04-25T00:43:31.359Z,68.71
2019-04-25T00:46:04.013Z,69.03
2019-04-25T00:48:35.963Z,69.07
2019-04-25T00:51:07.947Z,69.20
2019-04-25T00:53:40.033Z,69.21
2019-04-25T00:56:12.102Z,69.43
2019-04-25T00:58:51.317Z,69.33
2019-04-25T01:01:33.101Z,69.19
2019-04-25T01:04:05.126Z,69.16
2019-04-25T01:06:37.073Z,69.03
2019-04-25T01:09:13.806Z,68.93
2019-04-25T01:11:45.962Z,68.71
2019-04-25T01:14:18.078Z,68.76
2019-04-25T01:16:51.248Z,68.63
2019-04-25T01:19:24.454Z,68.56
2019-04-25T01:21:56.542Z,68.70
2019-04-25T01:24:28.891Z,68.75
2019-04-25T01:27:01.340Z,68.58
2019-04-25T01:29:33.528Z,68.60
2019-04-25T01:32:08.072Z,68.50
2019-04-25T01:35:00.479Z,68.47
2019-04-25T01:37:57.575Z,68.41
2019-04-25T01:40:53.083Z,68.30
2019-04-25T01:43:37.486Z,68.31
2019-04-25T01:46:10.873Z,68.18
2019-04-25T01:48:43.394Z,67.98
2019-04-25T01:51:15.548Z,67.87
2019-04-25T01:53:49.003Z,67.68
2019-04-25T01:56:21.277Z,67.56
2019-04-25T01:58:53.890Z,67.44
2019-04-25T02:01:26.872Z,67.34
2019-04-25T02:03:59.056Z,67.41
2019-04-25T02:06:31.374Z,67.29
2019-04-25T02:09:05.291Z,67.33
2019-04-25T02:11:58.914Z,67.37
2019-04-25T02:14:31.574Z,67.18
2019-04-25T02:17:04.522Z,67.36
2019-04-25T02:19:36.724Z,67.36
2019-04-25T02:22:09.326Z,67.52
2019-04-25T02:24:41.292Z,67.72
2019-04-25T02:27:13.635Z,67.95
2019-04-25T02:29:45.778Z,67.93
2019-04-25T02:32:17.955Z,68.24
2019-04-25T02:34:50.269Z,68.18
2019-04-25T02:37:22.279Z,68.47
2019-04-25T02:39:57.210Z,68.66
2019-04-25T02:42:28.378Z,68.78
2019-04-25T02:45:10.110Z,68.85
2019-04-25T02:48:05.683Z,68.93
2019-04-25T02:50:46.173Z,69.01
2019-04-25T02:53:37.299Z,69.01
2019-04-25T02:56:26.336Z,69.36
2019-04-25T02:58:44.271Z,69.43
2019-04-25T03:01:22.771Z,69.64
2019-04-25T03:03:54.359Z,69.76
2019-04-25T03:06:25.807Z,69.82
2019-04-25T03:09:00.222Z,69.92
2019-04-25T03:11:34.557Z,70.05
2019-04-25T03:14:09.500Z,70.00
2019-04-25T03:16:40.653Z,69.96
2019-04-25T03:19:46.542Z,69.98
2019-04-25T03:22:21.589Z,69.88
2019-04-25T03:24:55.098Z,70.04
2019-04-25T03:27:27.144Z,69.99
2019-04-25T03:29:59.738Z,70.03
2019-04-25T03:32:31.801Z,70.05
2019-04-25T03:35:05.549Z,70.19
2019-04-25T03:37:37.465Z,70.29
2019-04-25T03:40:11.716Z,70.40
2019-04-25T03:42:44.376Z,70.31
2019-04-25T03:45:16.329Z,70.12
2019-04-25T03:47:48.376Z,70.12
2019-04-25T03:50:20.656Z,69.93
2019-04-25T03:52:54.051Z,69.70
2019-04-25T03:55:26.309Z,69.32
2019-04-25T03:57:58.268Z,68.95
2019-04-25T04:00:30.519Z,68.44
2019-04-25T04:03:05.720Z,67.95
2019-04-25T04:05:36.448Z,67.36
2019-04-25T04:08:08.629Z,66.86
2019-04-25T04:10:40.759Z,66.16
2019-04-25T04:13:14.603Z,65.32
2019-04-25T04:15:46.536Z,64.48
2019-04-25T04:18:34.954Z,63.77
2019-04-25T04:21:33.999Z,62.77
2019-04-25T04:24:11.868Z,61.82
2019-04-25T04:26:45.531Z,60.93
2019-04-25T04:29:17.458Z,60.05
2019-04-25T04:31:49.484Z,59.10
2019-04-25T04:34:21.478Z,58.34
2019-04-25T04:36:53.770Z,57.73
2019-04-25T04:39:27.920Z,57.08
2019-04-25T04:42:00.436Z,56.26
2019-04-25T04:44:34.177Z,54.54
2019-04-25T04:47:06.134Z,52.77
2019-04-25T04:49:38.153Z,50.68
2019-04-25T04:52:11.412Z,48.93
2019-04-25T04:54:43.983Z,46.97
2019-04-25T04:57:26.653Z,46.02
2019-04-25T04:59:49.964Z,44.34
2019-04-25T05:02:30.515Z,43.01
2019-04-25T05:05:24.826Z,42.70
2019-04-25T05:08:00.343Z,41.22
2019-04-25T05:10:33.298Z,39.10
2019-04-25T05:13:05.489Z,38.17
2019-04-25T05:15:37.455Z,37.06
2019-04-25T05:18:09.490Z,35.92
2019-04-25T05:20:41.583Z,33.41
2019-04-25T05:23:15.734Z,30.75
2019-04-25T05:25:47.243Z,28.96
2019-04-25T05:28:19.570Z,27.25
2019-04-25T05:31:07.761Z,24.99
2019-04-25T05:33:40.576Z,23.25
2019-04-25T05:36:14.983Z,23.26
2019-04-25T05:38:46.346Z,24.73
2019-04-25T05:41:44.234Z,25.80
2019-04-25T05:44:16.939Z,25.94
2019-04-25T05:46:49.026Z,25.99
2019-04-25T05:49:21.378Z,24.34
2019-04-25T05:51:53.887Z,22.87
2019-04-25T05:54:26.880Z,21.25
2019-04-25T05:56:59.105Z,20.14
2019-04-25T05:59:31.105Z,19.05
2019-04-25T06:02:03.903Z,18.45
2019-04-25T06:04:37.506Z,16.94
2019-04-25T06:07:09.950Z,15.56
2019-04-25T06:10:00.859Z,14.14
2019-04-25T06:12:53.530Z,12.10
2019-04-25T06:15:28.718Z,11.13
2019-04-25T06:18:32.431Z,10.49
2019-04-25T06:21:06.396Z,9.53
2019-04-25T06:23:55.929Z,8.57
2019-04-25T06:26:36.100Z,8.70
2019-04-25T06:29:03.171Z,9.60
2019-04-25T06:31:35.392Z,10.48
2019-04-25T06:34:07.520Z,10.76
2019-04-25T06:36:39.916Z,10.85
2019-04-25T06:39:11.909Z,10.11
2019-04-25T06:41:44.233Z,9.61
2019-04-25T06:44:35.424Z,9.21
2019-04-25T06:47:32.290Z,8.55
2019-04-25T06:50:04.379Z,7.93
2019-04-25T06:52:36.364Z,7.12
2019-04-25T06:55:10.930Z,6.58
2019-04-25T06:57:44.155Z,6.49
2019-04-25T07:00:17.535Z,6.35
2019-04-25T07:02:49.539Z,6.78
2019-04-25T07:05:30.576Z,6.94
2019-04-25T07:07:56.834Z,7.21
2019-04-25T07:10:29.458Z,7.82
2019-04-25T07:13:01.650Z,8.46
2019-04-25T07:15:34.198Z,8.64
2019-04-25T07:18:07.459Z,7.66
2019-04-25T07:20:39.459Z,6.41
2019-04-25T07:23:11.440Z,5.54
2019-04-25T07:25:48.607Z,5.22
2019-04-25T07:28:48.768Z,4.88
2019-04-25T07:31:33.463Z,4.11
2019-04-25T07:34:10.743Z,3.37
2019-04-25T07:36:42.704Z,3.46
2019-04-25T07:39:15.086Z,3.27
2019-04-25T07:41:47.144Z,2.50
2019-04-25T07:44:22.029Z,3.19
2019-04-25T07:46:54.200Z,3.11
2019-04-25T07:49:26.856Z,2.39
2019-04-25T07:51:58.949Z,2.42
2019-04-25T07:54:30.995Z,2.16
2019-04-25T07:57:03.642Z,2.42
2019-04-25T07:59:36.383Z,2.85
2019-04-25T08:02:08.610Z,2.76
2019-04-25T08:04:40.936Z,2.71
2019-04-25T08:07:14.238Z,2.34
2019-04-25T08:09:46.476Z,2.22
2019-04-25T08:12:18.419Z,1.76
2019-04-25T08:14:55.487Z,1.58
2019-04-25T08:17:45.543Z,1.41
2019-04-25T08:20:20.418Z,0.99
2019-04-25T08:22:57.147Z,0.76
2019-04-25T08:25:26.175Z,0.45
2019-04-25T08:27:58.098Z,1.19
2019-04-25T08:30:31.401Z,1.67
2019-04-25T08:33:03.974Z,1.98
2019-04-25T08:35:36.537Z,1.38
2019-04-25T08:38:08.592Z,0.96
2019-04-25T08:40:42.479Z,0.94
2019-04-25T08:43:15.365Z,1.85
2019-04-25T08:45:47.564Z,2.70
2019-04-25T08:48:20.288Z,3.58
2019-04-25T08:51:03.667Z,3.25
2019-04-25T08:53:45.144Z,2.24
2019-04-25T08:56:22.273Z,1.55
2019-04-25T08:59:04.120Z,0.68
2019-04-25T09:01:47.646Z,0.30
2019-04-25T09:04:42.987Z,0.00
2019-04-25T09:07:15.774Z,0.00
2019-04-25T09:09:47.840Z,0.00
2019-04-25T09:12:20.459Z,0.00
2019-04-25T09:14:54.100Z,0.00
2019-04-25T09:17:26.241Z,0.00
2019-04-25T09:19:58.164Z,0.00
2019-04-25T09:22:30.156Z,0.00
2019-04-25T09:25:03.748Z,0.00
2019-04-25T09:27:39.238Z,0.00
2019-04-25T09:30:11.023Z,0.69
2019-04-25T09:32:44.529Z,0.00
2019-04-25T09:35:16.739Z,0.00
2019-04-25T09:37:48.702Z,0.00
2019-04-25T09:40:23.991Z,0.00
2019-04-25T09:42:56.332Z,0.00
2019-04-25T09:45:37.670Z,0.00
2019-04-25T09:48:30.801Z,0.00
2019-04-25T09:51:25.713Z,0.00
2019-04-25T09:54:03.888Z,0.00
2019-04-25T09:56:45.141Z,0.00
2019-04-25T09:59:27.143Z,0.00
2019-04-25T10:01:54.287Z,0.00
2019-04-25T10:04:26.258Z,0.00
2019-04-25T10:06:58.282Z,0.00
2019-04-25T10:09:33.666Z,0.00
2019-04-25T10:12:06.150Z,0.00
2019-04-25T10:15:24.030Z,0.00
2019-04-25T10:17:56.100Z,0.00
2019-04-25T10:20:28.280Z,0.00
2019-04-25T10:23:00.210Z,0.00
2019-04-25T10:25:33.424Z,0.00
2019-04-25T10:28:07.086Z,1.09
2019-04-25T10:30:39.541Z,1.14
2019-04-25T10:33:11.634Z,0.37
2019-04-25T10:35:52.088Z,0.00
2019-04-25T10:38:17.485Z,0.00
2019-04-25T10:40:50.331Z,0.00
2019-04-25T10:43:23.947Z,0.00
2019-04-25T10:45:56.522Z,0.00
2019-04-25T10:48:28.588Z,0.00
2019-04-25T10:51:00.903Z,0.00
2019-04-25T10:53:33.878Z,0.00
2019-04-25T10:56:06.158Z,0.00
2019-04-25T10:58:38.217Z,0.00
2019-04-25T11:01:10.646Z,0.00
2019-04-25T11:03:55.756Z,0.00
2019-04-25T11:06:29.461Z,0.00
2019-04-25T11:09:03.383Z,0.00
2019-04-25T11:11:37.368Z,0.00
2019-04-25T11:14:09.493Z,0.00
2019-04-25T11:16:42.841Z,0.00
2019-04-25T11:19:15.409Z,0.00
2019-04-25T11:21:47.728Z,0.18
2019-04-25T11:24:19.830Z,1.23
2019-04-25T11:26:51.822Z,2.92
2019-04-25T11:29:24.149Z,4.20
2019-04-25T11:31:56.475Z,4.84
2019-04-25T11:34:28.446Z,5.25
2019-04-25T11:37:01.036Z,6.36
2019-04-25T11:39:41.813Z,7.73
2019-04-25T11:42:16.066Z,9.20
2019-04-25T11:44:48.089Z,10.63
2019-04-25T11:47:20.794Z,11.33
2019-04-25T11:49:54.604Z,12.65
2019-04-25T11:52:29.985Z,13.87
2019-04-25T11:55:00.423Z,14.68
2019-04-25T11:57:32.438Z,15.76
2019-04-25T12:00:04.892Z,16.88
2019-04-25T12:02:36.874Z,17.89
2019-04-25T12:05:08.910Z,18.63
2019-04-25T12:07:40.924Z,19.19
2019-04-25T12:10:14.452Z,19.63
2019-04-25T12:12:47.394Z,20.09
2019-04-25T12:15:19.475Z,20.45
2019-04-25T12:17:51.619Z,21.07
2019-04-25T12:20:24.103Z,21.37
2019-04-25T12:23:05.935Z,21.98
2019-04-25T12:25:29.843Z,22.21
2019-04-25T12:28:02.819Z,22.24
2019-04-25T12:30:40.080Z,22.63
2019-04-25T12:33:20.722Z,23.24
2019-04-25T12:35:43.702Z,23.62
2019-04-25T12:38:15.911Z,23.59
2019-04-25T12:40:48.206Z,23.40
2019-04-25T12:43:23.967Z,23.43
2019-04-25T12:46:05.695Z,23.40
2019-04-25T12:48:37.708Z,23.49
2019-04-25T12:51:09.777Z,24.16
2019-04-25T12:53:41.769Z,23.89
2019-04-25T12:56:13.729Z,23.85
2019-04-25T12:58:45.683Z,23.88
2019-04-25T13:01:17.705Z,23.95
2019-04-25T13:03:50.858Z,24.39
2019-04-25T13:06:23.872Z,24.47
2019-04-25T13:08:55.900Z,24.54
2019-04-25T13:11:27.952Z,24.41
2019-04-25T13:14:00.294Z,24.71
2019-04-25T13:16:32.269Z,24.31
2019-04-25T13:19:16.722Z,24.71
2019-04-25T13:21:38.399Z,24.77
2019-04-25T13:24:10.550Z,24.98
2019-04-25T13:26:56.883Z,24.95
2019-04-25T13:29:53.241Z,25.41
2019-04-25T13:32:44.118Z,25.57
2019-04-25T13:35:21.198Z,25.60
2019-04-25T13:37:53.966Z,25.20
2019-04-25T13:40:26.068Z,25.03
2019-04-25T13:42:58.066Z,24.68
2019-04-25T13:45:30.355Z,24.65
2019-04-25T13:48:03.357Z,24.38
2019-04-25T13:50:36.141Z,24.62
2019-04-25T13:53:08.126Z,24.71
2019-04-25T13:55:40.506Z,25.01
2019-04-25T13:58:14.409Z,25.25
2019-04-25T14:00:47.422Z,25.42
2019-04-25T14:03:19.566Z,25.57
2019-04-25T14:05:51.630Z,25.60
2019-04-25T14:08:24.714Z,25.60
2019-04-25T14:10:57.359Z,25.71
2019-04-25T14:13:30.626Z,25.89
2019-04-25T14:16:30.759Z,25.56
2019-04-25T14:19:21.880Z,25.56
2019-04-25T14:21:56.947Z,25.66
2019-04-25T14:24:30.765Z,25.67
2019-04-25T14:27:03.690Z,25.75
2019-04-25T14:29:36.044Z,25.83
2019-04-25T14:32:09.821Z,25.90
2019-04-25T14:34:43.256Z,25.91
2019-04-25T14:37:15.385Z,25.72
2019-04-25T14:39:47.394Z,25.84
2019-04-25T14:42:19.404Z,25.97
2019-04-25T14:44:51.383Z,25.86
2019-04-25T14:47:24.392Z,25.64
2019-04-25T14:49:56.667Z,25.81
2019-04-25T14:52:28.682Z,25.84
2019-04-25T14:55:18.695Z,25.96
2019-04-25T14:57:51.129Z,25.98
2019-04-25T15:00:30.411Z,26.12
2019-04-25T15:03:02.464Z,26.49
2019-04-25T15:05:34.955Z,26.59
2019-04-25T15:08:07.526Z,26.44
2019-04-25T15:10:40.018Z,26.34
2019-04-25T15:13:12.245Z,26.60
2019-04-25T15:15:44.284Z,26.70
2019-04-25T15:18:16.362Z,26.75
2019-04-25T15:20:48.342Z,26.98
2019-04-25T15:23:21.046Z,26.97
2019-04-25T15:25:53.113Z,27.29
2019-04-25T15:28:25.126Z,27.33
2019-04-25T15:30:57.212Z,27.34
2019-04-25T15:33:30.252Z,27.33
2019-04-25T15:36:17.347Z,27.43
2019-04-25T15:38:58.196Z,27.32
2019-04-25T15:41:48.512Z,27.20
2019-04-25T15:44:39.653Z,27.21
2019-04-25T15:47:15.111Z,27.60
2019-04-25T15:49:47.182Z,27.64
2019-04-25T15:52:19.159Z,27.75
2019-04-25T15:54:51.268Z,27.63
2019-04-25T15:57:23.271Z,27.60
2019-04-25T15:59:55.370Z,27.75
2019-04-25T16:02:28.785Z,27.68
2019-04-25T16:05:01.208Z,27.96
2019-04-25T16:07:33.781Z,27.80
2019-04-25T16:10:06.819Z,28.10
2019-04-25T16:12:38.856Z,28.35
2019-04-25T16:15:11.102Z,28.35
2019-04-25T16:17:44.576Z,28.31
2019-04-25T16:20:16.736Z,28.24
2019-04-25T16:22:48.972Z,28.45
2019-04-25T16:25:22.944Z,28.58
2019-04-25T16:27:55.036Z,28.66
2019-04-25T16:30:32.449Z,28.58
2019-04-25T16:33:04.682Z,28.59
2019-04-25T16:35:37.818Z,28.57
2019-04-25T16:38:10.178Z,28.60
2019-04-25T16:40:42.150Z,28.85
2019-04-25T16:43:17.057Z,28.94
2019-04-25T16:45:49.133Z,29.21
2019-04-25T16:48:21.386Z,29.36
2019-04-25T16:50:53.386Z,29.66
2019-04-25T16:53:25.408Z,29.82
2019-04-25T16:55:57.422Z,29.97
2019-04-25T16:58:29.744Z,30.03
2019-04-25T17:01:09.622Z,30.13
2019-04-25T17:03:42.329Z,30.29
2019-04-25T17:06:14.403Z,30.29
2019-04-25T17:08:47.522Z,30.44
2019-04-25T17:11:19.838Z,30.47
2019-04-25T17:14:01.560Z,30.63
2019-04-25T17:16:42.360Z,30.69
2019-04-25T17:19:18.702Z,30.74
2019-04-25T17:21:50.778Z,30.83
2019-04-25T17:24:22.706Z,31.04
2019-04-25T17:26:54.728Z,31.20
2019-04-25T17:29:26.856Z,31.38
2019-04-25T17:32:10.923Z,31.52
2019-04-25T17:34:59.504Z,31.82
2019-04-25T17:37:41.056Z,31.85
2019-04-25T17:40:17.020Z,32.05
2019-04-25T17:42:49.063Z,32.43
2019-04-25T17:45:25.915Z,32.77
2019-04-25T17:47:57.877Z,32.94
2019-04-25T17:50:30.096Z,33.28
2019-04-25T17:53:02.174Z,33.36
2019-04-25T17:55:35.359Z,33.70
2019-04-25T17:58:07.370Z,34.00
2019-04-25T18:00:42.049Z,34.24
2019-04-25T18:03:14.309Z,34.66
2019-04-25T18:05:46.403Z,35.04
2019-04-25T18:08:18.583Z,35.31
2019-04-25T18:10:51.060Z,35.64
2019-04-25T18:13:23.053Z,36.06
2019-04-25T18:16:04.054Z,36.44
2019-04-25T18:18:58.852Z,36.85
2019-04-25T18:21:30.972Z,37.12
2019-04-25T18:24:27.958Z,37.45
2019-04-25T18:27:04.923Z,37.67
2019-04-25T18:29:39.506Z,38.07
2019-04-25T18:32:11.584Z,37.97
2019-04-25T18:34:58.722Z,38.15
2019-04-25T18:38:07.568Z,38.41
2019-04-25T18:40:47.334Z,38.60
2019-04-25T18:43:23.442Z,38.89
2019-04-25T18:46:00.011Z,39.06
2019-04-25T18:48:32.068Z,39.29
2019-04-25T18:51:04.061Z,39.47
2019-04-25T18:54:10.008Z,39.71
2019-04-25T18:56:57.462Z,39.94
2019-04-25T18:59:48.349Z,40.18
2019-04-25T19:02:46.199Z,40.49
2019-04-25T19:05:33.590Z,40.77
2019-04-25T19:08:06.366Z,40.95
2019-04-25T19:10:39.497Z,41.01
2019-04-25T19:13:12.719Z,41.13
2019-04-25T19:15:45.220Z,41.05
2019-04-25T19:18:17.318Z,41.41
2019-04-25T19:20:49.408Z,41.27
2019-04-25T19:23:21.418Z,41.10
2019-04-25T19:25:53.406Z,41.06
2019-04-25T19:28:25.505Z,41.00
2019-04-25T19:30:57.652Z,40.72
2019-04-25T19:33:35.815Z,40.71
2019-04-25T19:36:03.350Z,40.36
2019-04-25T19:38:35.291Z,40.42
2019-04-25T19:41:15.839Z,40.27
2019-04-25T19:44:01.386Z,40.16
2019-04-25T19:46:41.465Z,40.33
2019-04-25T19:49:13.874Z,40.46
2019-04-25T19:51:45.849Z,40.77
2019-04-25T19:54:17.979Z,41.04
2019-04-25T19:56:50.350Z,41.45
2019-04-25T19:59:23.642Z,41.45
2019-04-25T20:01:57.558Z,41.87
2019-04-25T20:04:53.196Z,42.00
2019-04-25T20:07:31.107Z,42.09
2019-04-25T20:10:11.221Z,42.08
2019-04-25T20:12:50.510Z,42.19
2019-04-25T20:15:21.788Z,42.29
2019-04-25T20:17:54.198Z,42.39
2019-04-25T20:20:26.380Z,42.69
2019-04-25T20:22:58.433Z,42.95
2019-04-25T20:25:30.833Z,43.26
2019-04-25T20:28:02.826Z,43.42
2019-04-25T20:30:34.846Z,43.70
2019-04-25T20:33:07.820Z,44.06
2019-04-25T20:35:40.272Z,44.35
2019-04-25T20:38:12.748Z,44.24
2019-04-25T20:40:45.352Z,44.48
2019-04-25T20:43:18.462Z,44.61
2019-04-25T20:45:50.480Z,44.76
2019-04-25T20:48:22.560Z,44.89
2019-04-25T20:50:54.599Z,44.67
2019-04-25T20:53:26.688Z,44.74
2019-04-25T20:55:58.652Z,45.15
2019-04-25T20:58:31.083Z,45.29
2019-04-25T21:01:04.061Z,45.47
2019-04-25T21:03:36.552Z,45.82
2019-04-25T21:06:15.209Z,45.86
2019-04-25T21:08:47.185Z,45.84
2019-04-25T21:11:19.159Z,45.72
2019-04-25T21:14:08.476Z,45.41
2019-04-25T21:17:02.949Z,45.28
2019-04-25T21:19:38.064Z,45.12
2019-04-25T21:22:10.872Z,44.96
2019-04-25T21:24:42.849Z,44.98
2019-04-25T21:27:14.918Z,45.03
2019-04-25T21:29:46.958Z,44.51
2019-04-25T21:32:20.875Z,44.33
2019-04-25T21:34:53.111Z,43.00
2019-04-25T21:37:26.181Z,43.64
2019-04-25T21:40:08.274Z,43.81
2019-04-25T21:42:51.579Z,43.44
2019-04-25T21:45:24.801Z,43.55
2019-04-25T21:47:57.087Z,43.06
2019-04-25T21:50:29.394Z,42.97
2019-04-25T21:53:01.773Z,42.90
2019-04-25T21:55:34.192Z,42.76
2019-04-25T21:58:06.583Z,42.44
2019-04-25T22:01:14.408Z,42.22
2019-04-25T22:03:46.885Z,42.04
2019-04-25T22:06:19.176Z,41.84
2019-04-25T22:08:51.276Z,41.85
2019-04-25T22:11:23.501Z,42.04
2019-04-25T22:13:56.604Z,41.97
2019-04-25T22:16:30.295Z,42.15
2019-04-25T22:19:02.556Z,42.24
2019-04-25T22:21:38.199Z,42.45
2019-04-25T22:24:13.780Z,42.73
2019-04-25T22:26:42.333Z,43.13
2019-04-25T22:29:14.724Z,43.38
2019-04-25T22:32:03.174Z,43.63
2019-04-25T22:34:52.098Z,43.40
2019-04-25T22:37:17.493Z,43.88
2019-04-25T22:39:50.212Z,44.14
2019-04-25T22:42:22.412Z,44.28
2019-04-25T22:44:54.635Z,44.39
2019-04-25T22:47:26.619Z,44.62
2019-04-25T22:49:58.586Z,44.81
2019-04-25T22:52:31.083Z,44.72
2019-04-25T22:55:04.253Z,44.57
2019-04-25T22:57:36.610Z,45.06
2019-04-25T23:00:12.390Z,45.29
2019-04-25T23:02:57.034Z,45.60
2019-04-25T23:05:51.468Z,45.93
2019-04-25T23:08:23.728Z,45.96
2019-04-25T23:10:55.716Z,45.90
2019-04-25T23:13:27.774Z,45.81
2019-04-25T23:16:00.302Z,46.08
2019-04-25T23:18:33.322Z,46.07
2019-04-25T23:21:06.689Z,45.77
2019-04-25T23:23:38.830Z,45.62
2019-04-25T23:26:33.072Z,45.52
2019-04-25T23:29:06.123Z,45.86
2019-04-25T23:31:38.910Z,46.15
2019-04-25T23:34:11.258Z,46.72
2019-04-25T23:36:43.294Z,46.98
2019-04-25T23:39:15.456Z,47.33
2019-04-25T23:41:47.519Z,47.92
2019-04-25T23:44:19.499Z,48.16
2019-04-25T23:46:51.821Z,48.27
2019-04-25T23:49:23.851Z,48.09
2019-04-25T23:51:56.122Z,48.18
2019-04-25T23:54:28.129Z,48.53
2019-04-25T23:57:00.839Z,48.74
2019-04-25T23:59:32.849Z,48.73
